Portada
METAR-TAF:

METAR-TAF

Aeropuertos :

Aeropuerto Internacional Fua'amotu

Tongatapu, Tonga

latitud: 21-14S, longitud: 175-09W, altitud: 38 m

Observación

El informe se hizo hace 1 hora y 14 minutos, a las 07:00 UTC
Viento 4 kt del sur
Temperatura 28°C
Humedad 89%
Presión 1009 hPa
Visibilidad 10 km o más
Escasas nubes a una altura de 1800 ft, Cumulus congestus.

METAR: NFTF 180700Z 19004KT 9999 FEW018TCU 28/26 Q1009

Hora: 21:14 (08:14 UTC)

Pronóstico

El informe se hizo hace 3 horas y 1 minutos, a las 05:13 UTC
Pronóstico válido del 18 a las 06 UTC al 19 a las 06 UTC
Viento 8 kt del oeste-suroeste
Visibilidad 10 km o más
Nubes dispersas a una altura de 1700 ft

TAF: NFTF 180513Z 1806/1906 24008KT 9999 SCT017

Observaciones y pronósticos meteorológicos de más de 4000 aeropuertos (mensajes METAR y TAF).

Los puntos amarillos y rojos representan las estaciones disponibles.

Ponga el ratón en el punto deseado para ver el nombre de la estación.

Haga clic para ver las observaciones y los pronósticos meteorológicos.

Para cambiar el mapa : haga clic en los botones verdes con una cruz de color negro para hacer un zoom, en el botón verde con un guión para alejar o en las flechas verdes para mapas adyacentes.


METAR-TAF: